Glennallen, AK (99588)

10:43 AM AKDT on July 22, 2014 (GMT -0800)
Gulkana (PAGK) Elev 1578 ft | 62.16 °N, 145.46 °W | Change Station

Current weather conditions updated 50 minutes ago

Clear
Clear
58 °F
Feels Like 58 °F
N
6
Wind Variable Wind from Variable

Today is forecast to be Cooler than yesterday.

Today
High -- | Low -- °F
--% Chance of Precip.
Yesterday
High -- | Low -- °F
Precip. -- in
4:45 AM 10:56 PM
Waning Crescent, 15% visible
Pressure 29.92 in
Visibility 10.0 miles
Clouds Clear
Dew Point 45 °F
Humidity 62%
Rainfall 0.00 in
Snow Depth Not available.
UV 4 out of 12
Pollen Not available.
Air Quality Not available.
Flu Activity Sporadic
METAR PAGK 221753Z AUTO VRB05KT 10SM CLR 14/07 A2993 RMK AO2 SLP132 T01440072 10144 20028 58016 TSNO

More Conditions Fewer Conditions

Pressure 29.92 in
Visibility 10.0 miles
Clouds Clear
Dew Point 45 °F
Humidity 62%
Rainfall 0.00 in
Snow Depth Not available.
UV 4 out of 12
Pollen Not available.
Air Quality Not available.
Flu Activity Sporadic
METAR PAGK 221753Z AUTO VRB05KT 10SM CLR 14/07 A2993 RMK AO2 SLP132 T01440072 10144 20028 58016 TSNO

More Conditions Fewer Conditions

10-Day Weather Forecast

LIGHTNING

Thunderstorms are forecast for your area. Cloud conditions might be right for producing strikes in the next few days, though lightning itself cannot be forecasted.

Lightning is a visible electrical discharge produced by a thunderstorm, based on the build up of oppositely charged particles within a cloud and from cloud to ground.

Know how to stay safe in a lightning storm.

Check out these Lightning WunderPhotos!

Almanac

Astronomy

Jul. 22, 2014 Rise Set
Actual Time 4:45 AM AKDT 10:56 PM AKDT
Civil Twilight 3:16 AM AKDT 12:22 AM AKDT
Nautical Twilight Sun does not rise Sun does not rise
Astronomical Twilight Sun does not rise Sun does not rise
Moon 1:43 AM AKDT 7:30 PM AKDT
Length of Visible Light 21h 06m
Length of Day
18h 11m
Tomorrow will be 5m 5s shorter.
Waning Crescent, 15% of the Moon is Illuminated
Today
Waning Crescent
Jul 26
New
Aug 3
First Quarter
Aug 10
Full
Aug 17
Last Quarter

Today's Extremes

State Highs State Lows

Community

WunderPhotos

Upload Photos

1,736,322 photos uploaded!

Nearby

Snow Depth

Station Depth Elevation
Upper Tsaina River 0 in 1750 ft
Moraine 0 in 2100 ft
Susitna Valley High 2 in 375 ft
Indian Pass 1 in 2300 ft
Turnagain Pass 0 in 1880 ft

Earthquake Activity

City Distance Mag. Time & Date
No recent earthquake activity has been reported nearby.
Minimum magnitude displayed is 2.5.

Coastal Water Temperatures

Place Temperature
No Stations Reporting

Nearby Weather Stations

Station Location Temp. Dew Point Humidity Wind Precip. Elev Updated Type
AKDOT Glenn Highway @ MP 176.6, Glennallen, AK 56 °F 44 °F 62% SE  at  4 mph 0.00 in / hr 2112 ft 9:05 AM AKDT MADIS

Show More Stations Show Fewer Stations